Portada
METAR-TAF:

METAR-TAF

Aeroports :

Bangalore, Índia

latitud: 12-57-00N, longitud: 077-40-06E, altitud: 888 m

Observació

L'informe es va fer fa 31 minuts, a les 18:00 UTC
Vent 6 kt del Est
Temperatura 27°C
Humitat 45%
Pressió 1016 hPa
Visibilitat: 8000 m

METAR: VOBG 221800Z 09006KT 8000 NSC 27/14 Q1016

Hora: 00:01 (18:31 UTC)

Pronòstic

L'informe es va fer fa 1 hora i 31 minuts, a les 17:00 UTC
Pronòstic vàlid del 22 a les 18 UTC al 23 a les 03 UTC
Vent 2 kt amb direcció variable
Visibilitat: 6000 m
Escasses núvols a una alçada de 1500 ft
Temporalment
l' 23 a les 00 UTC al 23 a les 03 UTC
Visibilitat: 5000 m
Escasses núvols a una alçada de 1000 ft
boirina

TAF: VOBG 221700Z 2218/2303 VRB02KT 6000 FEW015 TEMPO 2300/2303 5000 BR FEW010

Observacions i pronòstics meteorològics de més de 4000 aeroports (METAR i TAF).

Les estacions disponibles són els punts grocs i vermells al mapa.

Posi el ratolí al punt desitjat per veure el nom de l'estació.

Feu clic per veure les observacions i els pronòstics meteorològics.

Per canviar el mapa: feu clic els botons verds amb una creu de color negre per apropar; al botó verd amb un guió per allunyar la imatge; o en les fletxes verdes per a mapes adjacents.


METAR-TAF: